sensor_id;sensor_type;location;lat;lon;timestamp;P1;durP1;ratioP1;P2;durP2;ratioP2
3547;SDS011;1788;49.400;11.092;2024-03-22T00:01:42;27.80;;;13.97;;
3547;SDS011;1788;49.400;11.092;2024-03-22T00:04:09;23.17;;;13.37;;
3547;SDS011;1788;49.400;11.092;2024-03-22T00:06:36;22.23;;;12.40;;
3547;SDS011;1788;49.400;11.092;2024-03-22T00:09:03;20.70;;;11.87;;
3547;SDS011;1788;49.400;11.092;2024-03-22T00:11:31;22.43;;;13.33;;
3547;SDS011;1788;49.400;11.092;2024-03-22T00:13:58;25.50;;;13.63;;
3547;SDS011;1788;49.400;11.092;2024-03-22T00:16:25;24.27;;;12.90;;
3547;SDS011;1788;49.400;11.092;2024-03-22T00:18:52;24.00;;;13.43;;
3547;SDS011;1788;49.400;11.092;2024-03-22T00:21:18;25.27;;;12.80;;
3547;SDS011;1788;49.400;11.092;2024-03-22T00:23:45;24.33;;;12.53;;
3547;SDS011;1788;49.400;11.092;2024-03-22T00:26:11;22.70;;;13.43;;
3547;SDS011;1788;49.400;11.092;2024-03-22T00:28:38;19.03;;;12.80;;
3547;SDS011;1788;49.400;11.092;2024-03-22T00:31:05;21.57;;;12.97;;
3547;SDS011;1788;49.400;11.092;2024-03-22T00:33:32;24.07;;;14.00;;
3547;SDS011;1788;49.400;11.092;2024-03-22T00:35:59;21.27;;;13.27;;
3547;SDS011;1788;49.400;11.092;2024-03-22T00:38:26;25.17;;;13.10;;
3547;SDS011;1788;49.400;11.092;2024-03-22T00:40:53;29.50;;;15.13;;
3547;SDS011;1788;49.400;11.092;2024-03-22T00:43:20;22.27;;;12.53;;
3547;SDS011;1788;49.400;11.092;2024-03-22T00:45:47;20.93;;;13.33;;
3547;SDS011;1788;49.400;11.092;2024-03-22T00:48:14;21.07;;;12.30;;
3547;SDS011;1788;49.400;11.092;2024-03-22T00:50:41;19.93;;;11.70;;
3547;SDS011;1788;49.400;11.092;2024-03-22T00:53:08;23.13;;;13.03;;
3547;SDS011;1788;49.400;11.092;2024-03-22T00:55:34;25.60;;;13.53;;
3547;SDS011;1788;49.400;11.092;2024-03-22T00:58:02;28.30;;;13.77;;
3547;SDS011;1788;49.400;11.092;2024-03-22T01:00:29;25.47;;;14.13;;
3547;SDS011;1788;49.400;11.092;2024-03-22T01:02:56;24.13;;;12.23;;
3547;SDS011;1788;49.400;11.092;2024-03-22T01:05:23;23.10;;;12.43;;
3547;SDS011;1788;49.400;11.092;2024-03-22T01:07:49;23.30;;;12.33;;
3547;SDS011;1788;49.400;11.092;2024-03-22T01:10:17;20.23;;;11.80;;
3547;SDS011;1788;49.400;11.092;2024-03-22T01:12:43;18.63;;;11.93;;
3547;SDS011;1788;49.400;11.092;2024-03-22T01:15:11;24.40;;;14.10;;
3547;SDS011;1788;49.400;11.092;2024-03-22T01:17:37;22.53;;;11.13;;
3547;SDS011;1788;49.400;11.092;2024-03-22T01:20:04;20.77;;;11.97;;
3547;SDS011;1788;49.400;11.092;2024-03-22T01:22:30;20.67;;;11.07;;
3547;SDS011;1788;49.400;11.092;2024-03-22T01:24:57;20.03;;;11.13;;
3547;SDS011;1788;49.400;11.092;2024-03-22T01:27:24;25.30;;;13.40;;
3547;SDS011;1788;49.400;11.092;2024-03-22T01:29:51;23.07;;;11.97;;
3547;SDS011;1788;49.400;11.092;2024-03-22T01:32:18;20.90;;;12.43;;
3547;SDS011;1788;49.400;11.092;2024-03-22T01:34:44;22.97;;;11.27;;
3547;SDS011;1788;49.400;11.092;2024-03-22T01:37:11;24.43;;;13.07;;
3547;SDS011;1788;49.400;11.092;2024-03-22T01:39:38;19.80;;;11.80;;
3547;SDS011;1788;49.400;11.092;2024-03-22T01:42:04;19.63;;;11.33;;
3547;SDS011;1788;49.400;11.092;2024-03-22T01:44:32;23.77;;;11.77;;
3547;SDS011;1788;49.400;11.092;2024-03-22T01:46:58;21.63;;;11.53;;
3547;SDS011;1788;49.400;11.092;2024-03-22T01:49:26;24.23;;;12.30;;
3547;SDS011;1788;49.400;11.092;2024-03-22T01:51:52;23.33;;;12.33;;
3547;SDS011;1788;49.400;11.092;2024-03-22T01:54:19;18.47;;;11.67;;
3547;SDS011;1788;49.400;11.092;2024-03-22T01:56:45;18.63;;;11.27;;
3547;SDS011;1788;49.400;11.092;2024-03-22T01:59:12;18.90;;;12.00;;
3547;SDS011;1788;49.400;11.092;2024-03-22T02:01:39;22.67;;;13.63;;
3547;SDS011;1788;49.400;11.092;2024-03-22T02:04:06;21.33;;;12.33;;
3547;SDS011;1788;49.400;11.092;2024-03-22T02:06:33;22.07;;;12.90;;
3547;SDS011;1788;49.400;11.092;2024-03-22T02:09:00;22.27;;;12.10;;
3547;SDS011;1788;49.400;11.092;2024-03-22T02:11:27;17.50;;;11.37;;
3547;SDS011;1788;49.400;11.092;2024-03-22T02:13:55;22.60;;;12.10;;
3547;SDS011;1788;49.400;11.092;2024-03-22T02:16:21;18.47;;;11.90;;
3547;SDS011;1788;49.400;11.092;2024-03-22T02:18:48;21.60;;;12.37;;
3547;SDS011;1788;49.400;11.092;2024-03-22T02:21:14;22.33;;;12.03;;
3547;SDS011;1788;49.400;11.092;2024-03-22T02:23:41;19.27;;;11.40;;
3547;SDS011;1788;49.400;11.092;2024-03-22T02:26:09;19.30;;;11.57;;
3547;SDS011;1788;49.400;11.092;2024-03-22T02:28:35;21.30;;;12.83;;
3547;SDS011;1788;49.400;11.092;2024-03-22T02:31:03;20.03;;;12.20;;
3547;SDS011;1788;49.400;11.092;2024-03-22T02:33:30;25.47;;;13.43;;
3547;SDS011;1788;49.400;11.092;2024-03-22T02:35:57;22.20;;;11.97;;
3547;SDS011;1788;49.400;11.092;2024-03-22T02:38:24;23.33;;;12.07;;
3547;SDS011;1788;49.400;11.092;2024-03-22T02:40:52;21.83;;;12.73;;
3547;SDS011;1788;49.400;11.092;2024-03-22T02:43:18;24.57;;;11.73;;
3547;SDS011;1788;49.400;11.092;2024-03-22T02:45:45;22.20;;;11.70;;
3547;SDS011;1788;49.400;11.092;2024-03-22T02:48:12;22.00;;;11.13;;
3547;SDS011;1788;49.400;11.092;2024-03-22T02:50:39;23.77;;;11.70;;
3547;SDS011;1788;49.400;11.092;2024-03-22T02:53:06;28.23;;;13.43;;
3547;SDS011;1788;49.400;11.092;2024-03-22T02:58:00;24.30;;;11.50;;
3547;SDS011;1788;49.400;11.092;2024-03-22T03:00:27;20.63;;;10.43;;
3547;SDS011;1788;49.400;11.092;2024-03-22T03:02:54;18.53;;;11.03;;
3547;SDS011;1788;49.400;11.092;2024-03-22T03:05:21;22.50;;;12.80;;
3547;SDS011;1788;49.400;11.092;2024-03-22T03:07:48;18.87;;;11.30;;
3547;SDS011;1788;49.400;11.092;2024-03-22T03:10:15;18.87;;;11.97;;
3547;SDS011;1788;49.400;11.092;2024-03-22T03:12:42;23.37;;;12.57;;
3547;SDS011;1788;49.400;11.092;2024-03-22T03:15:09;20.40;;;11.03;;
3547;SDS011;1788;49.400;11.092;2024-03-22T03:17:36;21.10;;;12.27;;
3547;SDS011;1788;49.400;11.092;2024-03-22T03:20:04;24.83;;;13.80;;
3547;SDS011;1788;49.400;11.092;2024-03-22T03:22:31;22.80;;;12.50;;
3547;SDS011;1788;49.400;11.092;2024-03-22T03:24:58;25.63;;;13.33;;
3547;SDS011;1788;49.400;11.092;2024-03-22T03:27:25;22.80;;;13.90;;
3547;SDS011;1788;49.400;11.092;2024-03-22T03:29:52;20.23;;;12.40;;
3547;SDS011;1788;49.400;11.092;2024-03-22T03:32:19;22.17;;;12.53;;
3547;SDS011;1788;49.400;11.092;2024-03-22T03:34:46;28.80;;;13.47;;
3547;SDS011;1788;49.400;11.092;2024-03-22T03:37:13;23.00;;;12.43;;
3547;SDS011;1788;49.400;11.092;2024-03-22T03:39:40;18.20;;;11.10;;
3547;SDS011;1788;49.400;11.092;2024-03-22T03:42:06;21.47;;;12.27;;
3547;SDS011;1788;49.400;11.092;2024-03-22T03:44:33;23.50;;;12.73;;
3547;SDS011;1788;49.400;11.092;2024-03-22T03:47:00;23.57;;;13.17;;
3547;SDS011;1788;49.400;11.092;2024-03-22T03:49:26;22.43;;;12.20;;
3547;SDS011;1788;49.400;11.092;2024-03-22T03:51:53;21.83;;;11.23;;
3547;SDS011;1788;49.400;11.092;2024-03-22T03:54:19;21.73;;;12.70;;
3547;SDS011;1788;49.400;11.092;2024-03-22T03:56:46;19.90;;;12.03;;
3547;SDS011;1788;49.400;11.092;2024-03-22T03:59:13;24.93;;;12.43;;
3547;SDS011;1788;49.400;11.092;2024-03-22T04:01:40;20.43;;;12.60;;
3547;SDS011;1788;49.400;11.092;2024-03-22T04:04:07;24.10;;;12.83;;
3547;SDS011;1788;49.400;11.092;2024-03-22T04:06:34;20.83;;;11.43;;
3547;SDS011;1788;49.400;11.092;2024-03-22T04:09:01;19.80;;;12.20;;
3547;SDS011;1788;49.400;11.092;2024-03-22T04:11:28;22.67;;;11.70;;
3547;SDS011;1788;49.400;11.092;2024-03-22T04:13:55;21.47;;;13.33;;
3547;SDS011;1788;49.400;11.092;2024-03-22T04:16:22;21.73;;;11.40;;
3547;SDS011;1788;49.400;11.092;2024-03-22T04:18:49;19.87;;;10.27;;
3547;SDS011;1788;49.400;11.092;2024-03-22T04:21:15;19.77;;;11.00;;
3547;SDS011;1788;49.400;11.092;2024-03-22T04:23:42;19.77;;;11.13;;
3547;SDS011;1788;49.400;11.092;2024-03-22T04:26:08;21.40;;;12.13;;
3547;SDS011;1788;49.400;11.092;2024-03-22T04:28:35;20.63;;;11.57;;
3547;SDS011;1788;49.400;11.092;2024-03-22T04:33:28;19.03;;;11.07;;
3547;SDS011;1788;49.400;11.092;2024-03-22T04:35:55;20.70;;;11.10;;
3547;SDS011;1788;49.400;11.092;2024-03-22T04:40:49;16.17;;;10.73;;
3547;SDS011;1788;49.400;11.092;2024-03-22T04:43:16;21.67;;;11.63;;
3547;SDS011;1788;49.400;11.092;2024-03-22T04:45:42;22.60;;;11.43;;
3547;SDS011;1788;49.400;11.092;2024-03-22T04:48:09;19.93;;;10.67;;
3547;SDS011;1788;49.400;11.092;2024-03-22T04:50:35;19.27;;;10.57;;
3547;SDS011;1788;49.400;11.092;2024-03-22T04:53:02;21.97;;;11.40;;
3547;SDS011;1788;49.400;11.092;2024-03-22T04:55:29;18.00;;;10.70;;
3547;SDS011;1788;49.400;11.092;2024-03-22T04:57:55;23.30;;;10.40;;
3547;SDS011;1788;49.400;11.092;2024-03-22T05:00:22;20.33;;;11.97;;
3547;SDS011;1788;49.400;11.092;2024-03-22T05:02:48;22.03;;;11.20;;
3547;SDS011;1788;49.400;11.092;2024-03-22T05:05:16;19.43;;;10.40;;
3547;SDS011;1788;49.400;11.092;2024-03-22T05:07:43;18.40;;;10.53;;
3547;SDS011;1788;49.400;11.092;2024-03-22T05:10:09;20.40;;;11.03;;
3547;SDS011;1788;49.400;11.092;2024-03-22T05:12:36;19.13;;;10.73;;
3547;SDS011;1788;49.400;11.092;2024-03-22T05:15:03;19.00;;;9.90;;
3547;SDS011;1788;49.400;11.092;2024-03-22T05:17:29;18.27;;;10.37;;
3547;SDS011;1788;49.400;11.092;2024-03-22T05:19:56;20.90;;;10.77;;
3547;SDS011;1788;49.400;11.092;2024-03-22T05:22:22;19.07;;;10.20;;
3547;SDS011;1788;49.400;11.092;2024-03-22T05:24:49;19.93;;;11.73;;
3547;SDS011;1788;49.400;11.092;2024-03-22T05:27:16;21.97;;;11.30;;
3547;SDS011;1788;49.400;11.092;2024-03-22T05:29:42;22.33;;;11.13;;
3547;SDS011;1788;49.400;11.092;2024-03-22T05:32:09;25.07;;;12.73;;
3547;SDS011;1788;49.400;11.092;2024-03-22T05:34:35;19.10;;;10.83;;
3547;SDS011;1788;49.400;11.092;2024-03-22T05:37:02;18.03;;;10.90;;
3547;SDS011;1788;49.400;11.092;2024-03-22T05:39:29;23.27;;;11.53;;
3547;SDS011;1788;49.400;11.092;2024-03-22T05:41:55;23.97;;;11.30;;
3547;SDS011;1788;49.400;11.092;2024-03-22T05:44:22;20.03;;;12.47;;
3547;SDS011;1788;49.400;11.092;2024-03-22T05:46:48;26.13;;;11.77;;
3547;SDS011;1788;49.400;11.092;2024-03-22T05:49:15;16.73;;;10.23;;
3547;SDS011;1788;49.400;11.092;2024-03-22T05:51:42;24.03;;;11.27;;
3547;SDS011;1788;49.400;11.092;2024-03-22T05:54:08;22.83;;;12.53;;
3547;SDS011;1788;49.400;11.092;2024-03-22T05:56:35;21.87;;;11.77;;
3547;SDS011;1788;49.400;11.092;2024-03-22T05:59:01;24.53;;;11.50;;
3547;SDS011;1788;49.400;11.092;2024-03-22T06:01:29;21.33;;;11.43;;
3547;SDS011;1788;49.400;11.092;2024-03-22T06:03:55;27.13;;;13.80;;
3547;SDS011;1788;49.400;11.092;2024-03-22T06:06:22;24.27;;;12.40;;
3547;SDS011;1788;49.400;11.092;2024-03-22T06:08:49;23.63;;;12.03;;
3547;SDS011;1788;49.400;11.092;2024-03-22T06:11:15;21.87;;;11.40;;
3547;SDS011;1788;49.400;11.092;2024-03-22T06:13:42;20.90;;;12.47;;
3547;SDS011;1788;49.400;11.092;2024-03-22T06:16:09;25.03;;;13.53;;
3547;SDS011;1788;49.400;11.092;2024-03-22T06:18:36;24.57;;;12.77;;
3547;SDS011;1788;49.400;11.092;2024-03-22T06:21:03;22.63;;;12.83;;
3547;SDS011;1788;49.400;11.092;2024-03-22T06:23:29;24.67;;;13.20;;
3547;SDS011;1788;49.400;11.092;2024-03-22T06:25:56;23.03;;;12.00;;
3547;SDS011;1788;49.400;11.092;2024-03-22T06:28:23;23.87;;;12.20;;
3547;SDS011;1788;49.400;11.092;2024-03-22T06:30:50;25.10;;;12.97;;
3547;SDS011;1788;49.400;11.092;2024-03-22T06:33:16;24.33;;;13.00;;
3547;SDS011;1788;49.400;11.092;2024-03-22T06:35:43;26.03;;;12.37;;
3547;SDS011;1788;49.400;11.092;2024-03-22T06:38:10;21.87;;;11.30;;
3547;SDS011;1788;49.400;11.092;2024-03-22T06:40:36;22.93;;;13.47;;
3547;SDS011;1788;49.400;11.092;2024-03-22T06:43:03;27.83;;;13.40;;
3547;SDS011;1788;49.400;11.092;2024-03-22T06:45:30;22.80;;;12.47;;
3547;SDS011;1788;49.400;11.092;2024-03-22T06:47:57;24.70;;;12.73;;
3547;SDS011;1788;49.400;11.092;2024-03-22T06:50:24;27.40;;;14.40;;
3547;SDS011;1788;49.400;11.092;2024-03-22T06:52:51;21.80;;;12.27;;
3547;SDS011;1788;49.400;11.092;2024-03-22T06:55:17;21.20;;;11.20;;
3547;SDS011;1788;49.400;11.092;2024-03-22T06:57:45;21.07;;;12.17;;
3547;SDS011;1788;49.400;11.092;2024-03-22T07:02:37;23.33;;;12.43;;
3547;SDS011;1788;49.400;11.092;2024-03-22T07:05:05;24.43;;;13.17;;
3547;SDS011;1788;49.400;11.092;2024-03-22T07:07:31;20.93;;;12.20;;
3547;SDS011;1788;49.400;11.092;2024-03-22T07:09:58;18.87;;;11.43;;
3547;SDS011;1788;49.400;11.092;2024-03-22T07:12:25;21.07;;;12.90;;
3547;SDS011;1788;49.400;11.092;2024-03-22T07:14:51;19.83;;;11.63;;
3547;SDS011;1788;49.400;11.092;2024-03-22T07:17:18;21.30;;;12.30;;
3547;SDS011;1788;49.400;11.092;2024-03-22T07:19:45;22.13;;;11.90;;
3547;SDS011;1788;49.400;11.092;2024-03-22T07:22:12;24.07;;;12.13;;
3547;SDS011;1788;49.400;11.092;2024-03-22T07:24:39;21.13;;;12.23;;
3547;SDS011;1788;49.400;11.092;2024-03-22T07:27:06;19.97;;;11.63;;
3547;SDS011;1788;49.400;11.092;2024-03-22T07:29:33;26.63;;;12.57;;
3547;SDS011;1788;49.400;11.092;2024-03-22T07:32:00;22.23;;;12.40;;
3547;SDS011;1788;49.400;11.092;2024-03-22T07:34:27;22.70;;;11.77;;
3547;SDS011;1788;49.400;11.092;2024-03-22T07:36:54;20.87;;;11.33;;
3547;SDS011;1788;49.400;11.092;2024-03-22T07:39:20;21.83;;;12.07;;
3547;SDS011;1788;49.400;11.092;2024-03-22T07:41:48;24.67;;;12.20;;
3547;SDS011;1788;49.400;11.092;2024-03-22T07:44:14;22.30;;;11.83;;
3547;SDS011;1788;49.400;11.092;2024-03-22T07:46:40;17.57;;;11.07;;
3547;SDS011;1788;49.400;11.092;2024-03-22T07:49:07;22.10;;;12.03;;
3547;SDS011;1788;49.400;11.092;2024-03-22T07:51:33;21.63;;;11.70;;
3547;SDS011;1788;49.400;11.092;2024-03-22T07:54:00;20.43;;;12.63;;
3547;SDS011;1788;49.400;11.092;2024-03-22T07:56:27;23.27;;;11.40;;
3547;SDS011;1788;49.400;11.092;2024-03-22T07:58:53;20.47;;;10.93;;
3547;SDS011;1788;49.400;11.092;2024-03-22T08:01:20;21.13;;;12.17;;
3547;SDS011;1788;49.400;11.092;2024-03-22T08:03:47;22.50;;;12.03;;
3547;SDS011;1788;49.400;11.092;2024-03-22T08:06:14;20.60;;;12.17;;
3547;SDS011;1788;49.400;11.092;2024-03-22T08:08:41;22.27;;;11.43;;
3547;SDS011;1788;49.400;11.092;2024-03-22T08:11:07;21.13;;;11.57;;
3547;SDS011;1788;49.400;11.092;2024-03-22T08:13:34;22.03;;;13.20;;
3547;SDS011;1788;49.400;11.092;2024-03-22T08:16:00;21.37;;;11.73;;
3547;SDS011;1788;49.400;11.092;2024-03-22T08:18:27;24.27;;;12.37;;
3547;SDS011;1788;49.400;11.092;2024-03-22T08:20:54;21.60;;;12.83;;
3547;SDS011;1788;49.400;11.092;2024-03-22T08:23:21;18.73;;;11.33;;
3547;SDS011;1788;49.400;11.092;2024-03-22T08:25:48;17.10;;;11.53;;
3547;SDS011;1788;49.400;11.092;2024-03-22T08:28:14;22.20;;;12.17;;
3547;SDS011;1788;49.400;11.092;2024-03-22T08:30:41;22.27;;;13.07;;
3547;SDS011;1788;49.400;11.092;2024-03-22T08:33:08;22.10;;;12.60;;
3547;SDS011;1788;49.400;11.092;2024-03-22T08:35:35;22.20;;;11.57;;
3547;SDS011;1788;49.400;11.092;2024-03-22T08:38:01;20.10;;;11.73;;
3547;SDS011;1788;49.400;11.092;2024-03-22T08:40:29;25.33;;;12.53;;
3547;SDS011;1788;49.400;11.092;2024-03-22T08:42:55;18.97;;;11.43;;
3547;SDS011;1788;49.400;11.092;2024-03-22T08:45:23;24.90;;;13.10;;
3547;SDS011;1788;49.400;11.092;2024-03-22T08:47:49;26.00;;;13.70;;
3547;SDS011;1788;49.400;11.092;2024-03-22T08:50:17;21.97;;;12.07;;
3547;SDS011;1788;49.400;11.092;2024-03-22T08:52:43;21.13;;;11.83;;
3547;SDS011;1788;49.400;11.092;2024-03-22T08:55:11;24.57;;;12.70;;
3547;SDS011;1788;49.400;11.092;2024-03-22T08:57:37;19.43;;;11.90;;
3547;SDS011;1788;49.400;11.092;2024-03-22T09:00:04;21.53;;;12.23;;
3547;SDS011;1788;49.400;11.092;2024-03-22T09:02:31;20.80;;;12.87;;
3547;SDS011;1788;49.400;11.092;2024-03-22T09:04:57;20.87;;;12.10;;
3547;SDS011;1788;49.400;11.092;2024-03-22T09:07:24;23.00;;;12.60;;
3547;SDS011;1788;49.400;11.092;2024-03-22T09:09:51;20.80;;;13.80;;
3547;SDS011;1788;49.400;11.092;2024-03-22T09:12:19;19.73;;;12.50;;
3547;SDS011;1788;49.400;11.092;2024-03-22T09:14:45;22.87;;;12.20;;
3547;SDS011;1788;49.400;11.092;2024-03-22T09:17:12;18.50;;;12.20;;
3547;SDS011;1788;49.400;11.092;2024-03-22T09:19:39;17.97;;;11.57;;
3547;SDS011;1788;49.400;11.092;2024-03-22T09:22:06;20.47;;;11.03;;
3547;SDS011;1788;49.400;11.092;2024-03-22T09:24:33;17.57;;;11.73;;
3547;SDS011;1788;49.400;11.092;2024-03-22T09:26:59;22.07;;;12.00;;
3547;SDS011;1788;49.400;11.092;2024-03-22T09:29:26;18.67;;;10.53;;
3547;SDS011;1788;49.400;11.092;2024-03-22T09:31:52;18.90;;;11.07;;
3547;SDS011;1788;49.400;11.092;2024-03-22T09:34:19;18.30;;;11.50;;
3547;SDS011;1788;49.400;11.092;2024-03-22T09:36:46;19.20;;;12.10;;
3547;SDS011;1788;49.400;11.092;2024-03-22T09:39:12;18.60;;;10.77;;
3547;SDS011;1788;49.400;11.092;2024-03-22T09:41:42;23.60;;;11.90;;
3547;SDS011;1788;49.400;11.092;2024-03-22T09:44:05;18.00;;;10.93;;
3547;SDS011;1788;49.400;11.092;2024-03-22T09:46:33;17.27;;;10.43;;
3547;SDS011;1788;49.400;11.092;2024-03-22T09:48:59;17.37;;;11.13;;
3547;SDS011;1788;49.400;11.092;2024-03-22T09:51:27;16.87;;;10.03;;
3547;SDS011;1788;49.400;11.092;2024-03-22T09:53:53;17.17;;;10.80;;
3547;SDS011;1788;49.400;11.092;2024-03-22T09:56:21;20.17;;;11.40;;
3547;SDS011;1788;49.400;11.092;2024-03-22T09:58:47;20.60;;;11.33;;
3547;SDS011;1788;49.400;11.092;2024-03-22T10:01:15;20.50;;;10.67;;
3547;SDS011;1788;49.400;11.092;2024-03-22T10:03:41;21.70;;;11.43;;
3547;SDS011;1788;49.400;11.092;2024-03-22T10:06:09;20.17;;;11.77;;
3547;SDS011;1788;49.400;11.092;2024-03-22T10:08:35;20.80;;;10.47;;
3547;SDS011;1788;49.400;11.092;2024-03-22T10:11:02;15.50;;;10.17;;
3547;SDS011;1788;49.400;11.092;2024-03-22T10:13:29;12.03;;;9.00;;
3547;SDS011;1788;49.400;11.092;2024-03-22T10:15:56;13.20;;;8.37;;
3547;SDS011;1788;49.400;11.092;2024-03-22T10:18:22;15.60;;;9.97;;
3547;SDS011;1788;49.400;11.092;2024-03-22T10:23:16;14.93;;;8.83;;
3547;SDS011;1788;49.400;11.092;2024-03-22T10:25:43;13.93;;;8.87;;
3547;SDS011;1788;49.400;11.092;2024-03-22T10:28:10;15.00;;;8.60;;
3547;SDS011;1788;49.400;11.092;2024-03-22T10:30:37;14.13;;;9.70;;
3547;SDS011;1788;49.400;11.092;2024-03-22T10:33:04;13.70;;;9.03;;
3547;SDS011;1788;49.400;11.092;2024-03-22T10:35:31;13.53;;;8.67;;
3547;SDS011;1788;49.400;11.092;2024-03-22T10:37:57;15.13;;;8.67;;
3547;SDS011;1788;49.400;11.092;2024-03-22T10:40:24;16.27;;;8.97;;
3547;SDS011;1788;49.400;11.092;2024-03-22T10:42:50;16.50;;;10.30;;
3547;SDS011;1788;49.400;11.092;2024-03-22T10:45:17;14.27;;;8.57;;
3547;SDS011;1788;49.400;11.092;2024-03-22T10:47:44;12.77;;;8.50;;
3547;SDS011;1788;49.400;11.092;2024-03-22T10:50:11;14.17;;;9.57;;
3547;SDS011;1788;49.400;11.092;2024-03-22T10:55:05;16.57;;;9.70;;
3547;SDS011;1788;49.400;11.092;2024-03-22T10:57:31;12.00;;;9.00;;
3547;SDS011;1788;49.400;11.092;2024-03-22T10:59:58;15.63;;;9.80;;
3547;SDS011;1788;49.400;11.092;2024-03-22T11:02:25;15.37;;;9.83;;
3547;SDS011;1788;49.400;11.092;2024-03-22T11:09:51;6.83;;;5.00;;
3547;SDS011;1788;49.400;11.092;2024-03-22T11:12:12;7.97;;;5.47;;
3547;SDS011;1788;49.400;11.092;2024-03-22T11:14:39;8.80;;;5.00;;
3547;SDS011;1788;49.400;11.092;2024-03-22T11:17:05;7.97;;;5.30;;
3547;SDS011;1788;49.400;11.092;2024-03-22T11:19:33;8.87;;;5.70;;
3547;SDS011;1788;49.400;11.092;2024-03-22T11:21:59;7.50;;;5.93;;
3547;SDS011;1788;49.400;11.092;2024-03-22T11:24:27;8.13;;;5.53;;
3547;SDS011;1788;49.400;11.092;2024-03-22T11:26:53;9.03;;;5.63;;
3547;SDS011;1788;49.400;11.092;2024-03-22T11:29:21;8.57;;;6.20;;
3547;SDS011;1788;49.400;11.092;2024-03-22T11:31:47;7.40;;;5.97;;
3547;SDS011;1788;49.400;11.092;2024-03-22T11:34:14;10.07;;;6.00;;
3547;SDS011;1788;49.400;11.092;2024-03-22T11:36:41;9.07;;;6.20;;
3547;SDS011;1788;49.400;11.092;2024-03-22T11:39:07;7.63;;;5.37;;
3547;SDS011;1788;49.400;11.092;2024-03-22T11:41:34;5.73;;;4.93;;
3547;SDS011;1788;49.400;11.092;2024-03-22T11:44:00;6.53;;;5.00;;
3547;SDS011;1788;49.400;11.092;2024-03-22T11:46:27;8.57;;;5.80;;
3547;SDS011;1788;49.400;11.092;2024-03-22T11:48:54;8.60;;;5.77;;
3547;SDS011;1788;49.400;11.092;2024-03-22T11:51:22;6.40;;;5.27;;
3547;SDS011;1788;49.400;11.092;2024-03-22T11:56:17;8.37;;;6.20;;
3547;SDS011;1788;49.400;11.092;2024-03-22T11:58:41;7.77;;;5.27;;
3547;SDS011;1788;49.400;11.092;2024-03-22T12:01:08;8.97;;;5.70;;
3547;SDS011;1788;49.400;11.092;2024-03-22T12:03:34;10.10;;;6.30;;
3547;SDS011;1788;49.400;11.092;2024-03-22T12:06:02;9.13;;;5.50;;
3547;SDS011;1788;49.400;11.092;2024-03-22T12:08:28;7.80;;;5.20;;
3547;SDS011;1788;49.400;11.092;2024-03-22T12:10:55;6.77;;;4.63;;
3547;SDS011;1788;49.400;11.092;2024-03-22T12:13:21;7.97;;;6.50;;
3547;SDS011;1788;49.400;11.092;2024-03-22T12:15:48;7.10;;;5.33;;
3547;SDS011;1788;49.400;11.092;2024-03-22T12:18:15;6.87;;;5.07;;
3547;SDS011;1788;49.400;11.092;2024-03-22T12:20:43;7.43;;;5.23;;
3547;SDS011;1788;49.400;11.092;2024-03-22T12:23:09;10.20;;;5.70;;
3547;SDS011;1788;49.400;11.092;2024-03-22T12:25:36;8.50;;;5.90;;
3547;SDS011;1788;49.400;11.092;2024-03-22T12:28:03;7.80;;;5.17;;
3547;SDS011;1788;49.400;11.092;2024-03-22T12:30:29;9.07;;;5.67;;
3547;SDS011;1788;49.400;11.092;2024-03-22T12:32:56;8.07;;;5.47;;
3547;SDS011;1788;49.400;11.092;2024-03-22T12:35:22;8.87;;;5.63;;
3547;SDS011;1788;49.400;11.092;2024-03-22T12:37:50;5.47;;;4.77;;
3547;SDS011;1788;49.400;11.092;2024-03-22T12:40:16;8.50;;;5.50;;
3547;SDS011;1788;49.400;11.092;2024-03-22T12:42:44;8.13;;;5.50;;
3547;SDS011;1788;49.400;11.092;2024-03-22T12:45:10;6.50;;;5.30;;
3547;SDS011;1788;49.400;11.092;2024-03-22T12:47:37;8.83;;;5.43;;
3547;SDS011;1788;49.400;11.092;2024-03-22T12:50:05;7.23;;;5.53;;
3547;SDS011;1788;49.400;11.092;2024-03-22T12:52:32;8.07;;;5.80;;
3547;SDS011;1788;49.400;11.092;2024-03-22T12:54:59;6.43;;;5.20;;
3547;SDS011;1788;49.400;11.092;2024-03-22T12:57:26;8.40;;;5.67;;
3547;SDS011;1788;49.400;11.092;2024-03-22T12:59:53;8.23;;;5.47;;
3547;SDS011;1788;49.400;11.092;2024-03-22T13:02:20;6.77;;;4.13;;
3547;SDS011;1788;49.400;11.092;2024-03-22T13:04:47;7.83;;;4.97;;
3547;SDS011;1788;49.400;11.092;2024-03-22T13:07:14;6.40;;;4.47;;
3547;SDS011;1788;49.400;11.092;2024-03-22T13:09:42;8.27;;;5.30;;
3547;SDS011;1788;49.400;11.092;2024-03-22T13:12:08;7.00;;;5.23;;
3547;SDS011;1788;49.400;11.092;2024-03-22T13:14:36;5.87;;;4.43;;
3547;SDS011;1788;49.400;11.092;2024-03-22T13:17:02;6.27;;;3.87;;
3547;SDS011;1788;49.400;11.092;2024-03-22T13:19:30;4.33;;;4.03;;
3547;SDS011;1788;49.400;11.092;2024-03-22T13:21:57;5.37;;;4.30;;
3547;SDS011;1788;49.400;11.092;2024-03-22T13:24:24;6.60;;;4.30;;
3547;SDS011;1788;49.400;11.092;2024-03-22T13:26:51;5.70;;;4.20;;
3547;SDS011;1788;49.400;11.092;2024-03-22T13:29:18;7.30;;;4.50;;
3547;SDS011;1788;49.400;11.092;2024-03-22T13:31:44;6.13;;;4.47;;
3547;SDS011;1788;49.400;11.092;2024-03-22T13:34:11;7.43;;;4.73;;
3547;SDS011;1788;49.400;11.092;2024-03-22T13:36:37;6.37;;;5.20;;
3547;SDS011;1788;49.400;11.092;2024-03-22T13:39:05;5.63;;;4.10;;
3547;SDS011;1788;49.400;11.092;2024-03-22T13:41:31;5.67;;;4.37;;
3547;SDS011;1788;49.400;11.092;2024-03-22T13:44:00;4.27;;;3.73;;
3547;SDS011;1788;49.400;11.092;2024-03-22T13:46:26;5.17;;;3.50;;
3547;SDS011;1788;49.400;11.092;2024-03-22T13:48:52;4.73;;;4.10;;
3547;SDS011;1788;49.400;11.092;2024-03-22T13:51:19;6.03;;;4.33;;
3547;SDS011;1788;49.400;11.092;2024-03-22T13:53:46;6.10;;;4.00;;
3547;SDS011;1788;49.400;11.092;2024-03-22T13:56:14;3.77;;;3.20;;
3547;SDS011;1788;49.400;11.092;2024-03-22T13:58:41;7.03;;;3.67;;
3547;SDS011;1788;49.400;11.092;2024-03-22T14:01:08;5.67;;;3.90;;
3547;SDS011;1788;49.400;11.092;2024-03-22T14:03:35;7.40;;;3.93;;
3547;SDS011;1788;49.400;11.092;2024-03-22T14:06:02;3.93;;;3.73;;
3547;SDS011;1788;49.400;11.092;2024-03-22T14:08:28;4.60;;;3.43;;
3547;SDS011;1788;49.400;11.092;2024-03-22T14:10:55;3.40;;;3.00;;
3547;SDS011;1788;49.400;11.092;2024-03-22T14:13:21;5.07;;;3.47;;
3547;SDS011;1788;49.400;11.092;2024-03-22T14:15:48;3.97;;;3.77;;
3547;SDS011;1788;49.400;11.092;2024-03-22T14:18:15;4.53;;;3.83;;
3547;SDS011;1788;49.400;11.092;2024-03-22T14:20:42;3.70;;;3.50;;
3547;SDS011;1788;49.400;11.092;2024-03-22T14:23:09;3.60;;;3.17;;
3547;SDS011;1788;49.400;11.092;2024-03-22T14:25:36;4.17;;;3.63;;
3547;SDS011;1788;49.400;11.092;2024-03-22T14:28:03;4.20;;;3.43;;
3547;SDS011;1788;49.400;11.092;2024-03-22T14:30:29;6.37;;;3.70;;
3547;SDS011;1788;49.400;11.092;2024-03-22T14:32:56;3.40;;;2.53;;
3547;SDS011;1788;49.400;11.092;2024-03-22T14:35:23;4.97;;;3.67;;
3547;SDS011;1788;49.400;11.092;2024-03-22T14:37:50;4.53;;;3.50;;
3547;SDS011;1788;49.400;11.092;2024-03-22T14:40:17;4.43;;;3.23;;
3547;SDS011;1788;49.400;11.092;2024-03-22T14:42:44;3.97;;;3.53;;
3547;SDS011;1788;49.400;11.092;2024-03-22T14:45:11;3.30;;;2.97;;
3547;SDS011;1788;49.400;11.092;2024-03-22T14:47:37;4.40;;;3.20;;
3547;SDS011;1788;49.400;11.092;2024-03-22T14:50:04;4.60;;;3.37;;
3547;SDS011;1788;49.400;11.092;2024-03-22T14:52:30;8.43;;;4.70;;
3547;SDS011;1788;49.400;11.092;2024-03-22T14:54:58;5.50;;;4.17;;
3547;SDS011;1788;49.400;11.092;2024-03-22T14:57:24;5.07;;;3.43;;
3547;SDS011;1788;49.400;11.092;2024-03-22T14:59:52;5.83;;;3.90;;
3547;SDS011;1788;49.400;11.092;2024-03-22T15:02:18;5.60;;;3.63;;